Tiempo atmosférico en la estación meteorológica de Puebla De Obando, Badajoz (392 m.)



Fecha
DESCASC
Temp. máxima en grados centígrados (hora)
DESCASC
Temp. mínima en grados centígrados (hora)
DESCASC
Temp. media en grados centígrados
DESCASC
Racha de viento máxima en m/sg (hora)
DESCASC
Velocidad máxima media en intervalos de 10 minutos(hora)
DESCASC
Precipitaciones diarias en mm
DESCASC
Precipitaciones de 00:00 a 06:00 en mm
DESCASC
Precipitaciones de 06:00 a 12:00 en mm
DESCASC
Precipitaciones de 12:00 a 18:00 en mm
DESCASC
Precipitaciones de 18:00 a 24:00 en mm
DESCASC
27-01-2020 12.3 (14:10) 4.6 (04:30) 8.5 11.11 (15:20) 7.5 (15:20) 0.2 0 0 0 0.2
26-01-2020 11.4 (15:10) 0.1 (09:00) 5.7 6.39 (21:00) 3.61 (21:00) 0.2 0 0.2 0 0
25-01-2020 13.8 (15:00) 5.2 (00:00) 9.5 8.61 (00:50) 5.28 (00:30) 8 7.6 0 0 0.4
24-01-2020 11.2 (16:00) 6.6 (00:00) 8.9 9.44 (23:40) 6.11 (23:30) 7 0.2 0 0 6.8
23-01-2020 10.3 (16:30) 6.7 (00:00) 8.5 10.83 (17:00) 7.5 (14:10) 7 5.4 1.4 0.2 0
22-01-2020 8.7 (19:40) 4.3 (00:00) 6.5 8.61 (14:50) 6.11 (14:50) 4.8 0 3.6 1.2 0
21-01-2020 11 (14:40) 4.1 (00:00) 7.5 15.83 (04:30) 11.11 (04:30) 0 0 0 0 0
20-01-2020 8 (13:30) 2.8 (00:00) 5.4 18.61 (16:50) 12.22 (16:40) 0 0 0 0 0
19-01-2020 12 (14:40) 4.1 (00:00) 8 17.22 (13:00) 10 (13:00) 0 0 0 0 0
18-01-2020 16.1 (16:30) 8.8 (00:00) 12.5 11.67 (19:50) 7.22 (19:40) 8.2 0.2 7.8 0.2 0
17-01-2020 14.1 (15:30) 7.9 (00:00) 11 5.83 (15:30) 3.89 (15:40) 0 0 0 0 0
16-01-2020 15.9 (16:00) 8.2 (00:00) 12 11.11 (21:00) 6.67 (16:30) 0.2 0 0 0 0.2
15-01-2020 15.1 (17:00) 6.3 (00:00) 10.7 8.89 (06:10) 6.39 (06:00) 0.4 0 0 0.2 0.2
14-01-2020 10.1 (14:30) 0.5 (00:00) 5.3 8.33 (21:30) 4.72 (13:30) 0.4 0 0 0.4 0
13-01-2020 11 (15:10) -0.3 (00:00) 5.3 6.39 (14:00) 3.89 (15:20) 0 0 0 0 0
12-01-2020 13.7 (15:40) -0.5 (-00:0) 6.6 3.61 (13:40) 2.22 (14:10) 0 0 0 0 0
11-01-2020 13.3 (15:50) 2.5 (00:00) 7.9 4.72 (13:00) 2.78 (07:10) 0 0 0 0 0
10-01-2020 12.5 (16:10) 4.5 (00:00) 8.5 8.89 (10:30) 5.28 (07:10) 0 0 0 0 0
09-01-2020 13.8 (16:10) 1.9 (00:00) 7.9 6.11 (23:30) 4.72 (23:30) 0.2 0 0.2 0 0
08-01-2020 14.7 (15:10) 0.8 (00:00) 7.7 2.78 (15:50) 1.94 (15:50) 0 0 0 0 0
07-01-2020 16.1 (15:40) 1.2 (00:00) 8.7 3.33 (19:40) 2.5 (19:40) 0 0 0 0 0
06-01-2020 15 (15:20) 1.3 (00:00) 8.1 3.61 (16:20) 2.5 (19:50) 0 0 0 0 0
05-01-2020 14.3 (15:50) 1.6 (00:00) 8 3.89 (03:10) 2.5 (18:10) 0 0 0 0 0
04-01-2020 11.6 (16:20) 1.8 (00:00) 6.7 6.94 (16:50) 4.72 (16:50) 0 0 0 0 0
03-01-2020 13.1 (15:40) 6.2 (00:00) 9.7 6.94 (14:50) 4.72 (14:50) 0 0 0 0 0
02-01-2020 13.7 (14:20) 2.7 (00:00) 8.2 4.17 (14:30) 2.78 (11:20) 0.2 0 0.2 0 0
01-01-2020 16.6 (16:00) 2.7 (00:00) 9.7 2.22 (15:00) 1.94 (03:20) 0 0 0 0 0
31-12-2019 14.7 (15:30) 1.9 (00:00) 8.3 3.33 (16:30) 2.5 (18:00) 0.2 0 0.2 0 0
30-12-2019 16.7 (15:20) 3.3 (00:00) 10 3.33 (08:50) 2.22 (00:30) 0 0 0 0 0

Gráficas

Temp. máximas Temp. mínimas Temp. medias Precipitaciones Rachas de viento máximas Velocidades máximas media en intervalos de 10 minutos

Datos horarios

Fecha y hora oficial Temperatura (ºC) Velocidad del viento (km/h) Dirección del viento Racha (km/h) Dirección de racha Precipitación (mm) Presión (hPa) Tendencia (hPa) Humedad (%)
2020-01-28 23:00:00 11.8 12 Oeste 22 Oeste 0 -- -- 100
2020-01-28 22:00:00 12.2 12 Oeste 18 Oeste 0 -- -- 100
2020-01-28 21:00:00 12.5 8 Sudoeste 16 Sudoeste 0 -- -- 100
2020-01-28 20:00:00 12.7 7 Sudoeste 24 Oeste 0 -- -- 100
2020-01-28 19:00:00 12.7 11 Sudoeste 21 Oeste 0 -- -- 100
2020-01-28 18:00:00 13.1 13 Sudoeste 23 Oeste 0 -- -- 100
2020-01-28 17:00:00 13.5 14 Sudoeste 22 Oeste 0 -- -- 98
2020-01-28 16:00:00 13.2 13 Oeste 21 Oeste 0.2 -- -- 100
2020-01-28 15:00:00 12.7 14 Oeste 26 Oeste 0.2 -- -- 100
2020-01-28 14:00:00 12.6 15 Oeste 30 Oeste 2.8 -- -- 100
2020-01-28 13:00:00 12.2 18 Oeste 33 Sudoeste 0 -- -- 100
2020-01-28 12:00:00 11.7 18 Sudoeste 33 Sudoeste 0.4 -- -- 100
2020-01-28 11:00:00 11.4 14 Sudoeste 24 Sudoeste 0 -- -- 100
2020-01-28 10:00:00 11.1 15 Sudoeste 24 Sudoeste 0.2 -- -- 100
2020-01-28 09:00:00 11 13 Sudoeste 24 Oeste 0 -- -- 100
2020-01-28 08:00:00 10.9 16 Sudoeste 24 Sudoeste 0 -- -- 100
2020-01-28 07:00:00 10.9 15 Oeste 26 Sudoeste 0.2 -- -- 100
2020-01-28 06:00:00 11 17 Sudoeste 28 Sudoeste 1 -- -- 100
2020-01-28 05:00:00 10.9 17 Sudoeste 27 Sudoeste 0.6 -- -- 100
2020-01-28 04:00:00 10.9 17 Sudoeste 36 Sudoeste 0.2 -- -- 100
2020-01-28 03:00:00 10.8 23 Sudoeste 34 Sudoeste 0 -- -- 100
2020-01-28 02:00:00 10.8 22 Sudoeste 35 Sudoeste 0.2 -- -- 100
2020-01-28 01:00:00 10.7 15 Oeste 34 Oeste 0.2 -- -- 100
2020-01-28 00:00:00 10.8 22 Sudoeste 37 Oeste 0.2 -- -- 100
2020-01-27 23:00:00 10.9 23 Oeste 33 Oeste 0 -- -- 97
2020-01-27 22:00:00 10.8 17 Oeste 31 Sudoeste 0 -- -- 98
2020-01-27 21:00:00 11.6 18 Oeste 31 Oeste 0 -- -- 92
2020-01-27 20:00:00 11.2 18 Oeste 27 Sudoeste 0 -- -- 96
2020-01-27 19:00:00 11.1 19 Sudoeste 30 Sudoeste 0 -- -- 97
2020-01-27 18:00:00 11.6 15 Sudoeste 32 Sudoeste 0 -- -- 92
2020-01-27 17:00:00 12 15 Sudoeste 34 Oeste 0 -- -- 89
2020-01-27 16:00:00 11.7 23 Sudoeste 40 Sudoeste 0 -- -- 87
2020-01-27 15:00:00 12.2 20 Sudoeste 37 Oeste 0 -- -- 88
2020-01-27 14:00:00 11.5 17 Sudoeste 30 Sudoeste 0 -- -- 91
2020-01-27 13:00:00 9.5 14 Sur 21 Sudoeste 0 -- -- 98
2020-01-27 12:00:00 8.2 11 Sur 21 Sur 0 -- -- 99
2020-01-27 11:00:00 7.6 10 Sudeste 19 Sur 0 -- -- 99
2020-01-27 10:00:00 7.1 14 Sur 19 Sur 0 -- -- 100
2020-01-27 09:00:00 6.5 12 Sur 19 Sur 0 -- -- 100
2020-01-27 08:00:00 6.7 11 Sur 18 Sur 0 -- -- 100
2020-01-27 07:00:00 6.1 6 Sudeste 11 Sudeste 0 -- -- 100
2020-01-27 06:00:00 5.4 4 Este 10 Sudeste 0 -- -- 100
2020-01-27 05:00:00 4.6 6 Sudeste 9 Sudeste 0 -- -- 100
2020-01-27 04:00:00 5.2 8 Sudeste 12 Sudeste 0 -- -- 100
2020-01-27 03:00:00 5.1 10 Sudeste 12 Sudeste 0 -- -- 100
2020-01-27 02:00:00 5.4 5 Sudeste 10 Sudeste 0 -- -- 100
2020-01-27 01:00:00 6.3 7 Sudeste 10 Sudeste 0 -- -- 100
2020-01-27 00:00:00 6.7 4 Sudeste 6 Sudeste 0 -- -- 100
2020-01-26 23:00:00 7.1 0 Calma 6 Sur 0 -- -- 97
2020-01-26 22:00:00 8.5 0 Calma 16 Sudoeste 0 -- -- 92
2020-01-26 21:00:00 9.7 13 Sudoeste 23 Sudoeste 0 -- -- 89
2020-01-26 20:00:00 8.2 0 Calma 6 Sudoeste 0 -- -- 96
2020-01-26 19:00:00 8.8 4 Sudoeste 12 Sudoeste 0 -- -- 92
2020-01-26 18:00:00 10.7 6 Sudoeste 15 Oeste 0 -- -- 85
2020-01-26 17:00:00 10.7 11 Sudoeste 21 Oeste 0 -- -- 84
2020-01-26 16:00:00 11.2 10 Sudoeste 16 Sudoeste 0 -- -- 83
2020-01-26 15:00:00 11.1 6 Sudoeste 13 Oeste 0 -- -- 76
2020-01-26 14:00:00 10.6 4 Oeste 13 Sudeste 0 -- -- 84
2020-01-26 13:00:00 8.6 6 Sudeste 11 Sur 0 -- -- 92
2020-01-26 12:00:00 6.4 5 Sudeste 9 Este 0 -- -- 99
2020-01-26 11:00:00 4 7 Sudeste 11 Sudeste 0 -- -- 100
2020-01-26 10:00:00 3.2 3 Sudeste 4 Sudeste 0 -- -- 100
2020-01-26 09:00:00 0.1 0 Calma 2 Sudeste 0 -- -- 100
2020-01-26 08:00:00 0.8 2 Sudeste 7 Sudeste 0 -- -- 100
2020-01-26 07:00:00 2.2 4 Este 8 Este 0.2 -- -- 100
2020-01-26 06:00:00 3.8 0 Calma 9 Noroeste 0 -- -- 100
2020-01-26 05:00:00 4.3 2 Noroeste 9 Oeste 0 -- -- 100
2020-01-26 04:00:00 4.1 8 Noroeste 9 Noroeste 0 -- -- 100
2020-01-26 03:00:00 5.2 6 Oeste 9 Noroeste 0 -- -- 100
2020-01-26 02:00:00 5.4 4 Noroeste 7 Oeste 0 -- -- 100
2020-01-26 01:00:00 4.9 6 Noroeste 8 Noroeste 0 -- -- 100
2020-01-26 00:00:00 5.8 4 Oeste 5 Oeste 0 -- -- 100
2020-01-25 23:00:00 5.3 0 Calma 3 Oeste 0 -- -- 100
2020-01-25 22:00:00 6.3 0 Calma 3 Noroeste 0 -- -- 100
2020-01-25 21:00:00 7.8 0 Calma 6 Norte 0 -- -- 99
2020-01-25 20:00:00 8.9 0 Calma 10 Norte 0 -- -- 98
2020-01-25 19:00:00 9.9 7 Norte 16 Noroeste 0.4 -- -- 94
2020-01-25 18:00:00 11 10 Noroeste 16 Noroeste 0 -- -- 81
2020-01-25 17:00:00 11.7 13 Oeste 19 Oeste 0 -- -- 83
2020-01-25 16:00:00 11.3 10 Noroeste 26 Noroeste 0 -- -- 84
2020-01-25 15:00:00 13.8 5 Oeste 14 Sur 0 -- -- 67
2020-01-25 14:00:00 12.8 7 Sur 13 Sur 0 -- -- 80
2020-01-25 13:00:00 10.8 6 Sudeste 17 Sudeste 0 -- -- 90
2020-01-25 12:00:00 9.7 12 Sudeste 18 Sudeste 0 -- -- 96
2020-01-25 11:00:00 8.9 9 Sudeste 13 Sudeste 0 -- -- 98
2020-01-25 10:00:00 7.8 7 Sudeste 11 Sudeste 0 -- -- 100
2020-01-25 09:00:00 7.2 5 Sudeste 10 Sudeste 0 -- -- 100
2020-01-25 08:00:00 7.6 7 Sudeste 18 Sur 0 -- -- 100
2020-01-25 07:00:00 8 8 Sur 19 Sur 0 -- -- 100
2020-01-25 06:00:00 8.1 10 Sur 18 Sudoeste 1.6 -- -- 100
2020-01-25 05:00:00 8.1 5 Sur 17 Sudoeste 1.6 -- -- 100
2020-01-25 04:00:00 8 8 Sudoeste 23 Sur 0.8 -- -- 100
2020-01-25 03:00:00 8 13 Sur 24 Sur 1.2 -- -- 100
2020-01-25 02:00:00 7.8 11 Sudeste 25 Sudeste 1.4 -- -- 100
2020-01-25 01:00:00 8.1 18 Sudeste 31 Este 1 -- -- 99
2020-01-25 00:00:00 7.9 15 Sudeste 34 Sudeste 1.6 -- -- 100
2020-01-24 23:00:00 8.5 17 Sudeste 24 Sudeste 1.8 -- -- 100
2020-01-24 22:00:00 8.7 14 Sudeste 27 Sudeste 1.4 -- -- 100
2020-01-24 21:00:00 9 18 Sudeste 23 Sudeste 1.6 -- -- 99
2020-01-24 20:00:00 9.6 12 Sudeste 20 Sudeste 0.4 -- -- 92
2020-01-24 19:00:00 9.8 9 Sudeste 21 Este 0 -- -- 90
2020-01-24 18:00:00 10.2 12 Este 21 Este 0 -- -- 89
2020-01-24 17:00:00 10.8 13 Sudeste 24 Sudeste 0 -- -- 86
2020-01-24 16:00:00 11.2 18 Sudeste 26 Este 0 -- -- 83
2020-01-24 15:00:00 10.7 18 Sudeste 27 Sudeste 0 -- -- 86
2020-01-24 14:00:00 10.7 16 Sudeste 26 Sudeste 0 -- -- 86
2020-01-24 13:00:00 10.2 19 Sudeste 29 Sudeste 0 -- -- 90
2020-01-24 12:00:00 9.7 16 Sudeste 27 Sudeste 0 -- -- 93
2020-01-24 11:00:00 8.8 18 Sudeste 24 Sudeste 0 -- -- 98
2020-01-24 10:00:00 7.6 12 Sudeste 17 Sudeste 0 -- -- 100
2020-01-24 09:00:00 6.7 6 Sudeste 11 Sudeste 0 -- -- 100
2020-01-24 08:00:00 7.2 6 Sudeste 15 Sudeste 0 -- -- 100
2020-01-24 07:00:00 7.5 9 Sudeste 14 Sudeste 0 -- -- 100
2020-01-24 06:00:00 7.6 8 Sudeste 17 Sudeste 0.2 -- -- 100
2020-01-24 05:00:00 7.7 10 Sudeste 15 Sudeste 0 -- -- 100
2020-01-24 04:00:00 7.6 9 Sudeste 17 Sudeste 0 -- -- 100
2020-01-24 03:00:00 7.6 9 Sudeste 16 Sudeste 0 -- -- 100
2020-01-24 02:00:00 7.6 12 Sudeste 17 Sudeste 0 -- -- 100
2020-01-24 01:00:00 7.6 10 Sudeste 16 Sudeste 0 -- -- 100
2020-01-24 00:00:00 8 12 Sudeste 19 Sur 0 -- -- 100
2020-01-23 23:00:00 7.8 12 Sudeste 19 Sudeste 0 -- -- 100
2020-01-23 22:00:00 7.8 14 Sudeste 23 Sudeste 0 -- -- 99
2020-01-23 21:00:00 8.1 15 Sudeste 24 Sudeste 0 -- -- 97
2020-01-23 20:00:00 8.4 9 Sudeste 23 Sudeste 0 -- -- 97
2020-01-23 19:00:00 8.9 14 Sudeste 27 Sudeste 0 -- -- 95
2020-01-23 18:00:00 9.4 19 Sudeste 34 Sur 0 -- -- 91
2020-01-23 17:00:00 9.7 23 Sur 39 Sur 0 -- -- 86
2020-01-23 16:00:00 9.4 23 Sudeste 31 Sudeste 0 -- -- 95
2020-01-23 15:00:00 8.6 18 Sudeste 37 Sudeste 0.2 -- -- 99
2020-01-23 14:00:00 9.1 24 Sudeste 33 Sudeste 0 -- -- 93
2020-01-23 13:00:00 8.4 18 Sudeste 32 Sudeste 0 -- -- 96
2020-01-23 12:00:00 8.3 20 Sudeste 30 Este 0 -- -- 96
2020-01-23 11:00:00 7.9 18 Sudeste 31 Sudeste 0 -- -- 98
2020-01-23 10:00:00 7.2 15 Sudeste 25 Sudeste 0 -- -- 100
2020-01-23 09:00:00 6.7 16 Sudeste 28 Sudeste 0 -- -- 100
2020-01-23 08:00:00 6.8 17 Sudeste 27 Sudeste 0.6 -- -- 100
2020-01-23 07:00:00 6.8 16 Sudeste 29 Sudeste 0.8 -- -- 100
2020-01-23 06:00:00 6.9 18 Sudeste 27 Sudeste 0 -- -- 100
2020-01-23 05:00:00 6.9 17 Sudeste 25 Sudeste 0.6 -- -- 100
2020-01-23 04:00:00 6.7 14 Sudeste 21 Sudeste 2.2 -- -- 100
2020-01-23 03:00:00 6.7 13 Sudeste 21 Sudeste 1.6 -- -- 100
2020-01-23 02:00:00 6.9 10 Sudeste 16 Sudeste 1 -- -- 99
2020-01-23 01:00:00 7.6 9 Sudeste 15 Sudeste 0 -- -- 94
2020-01-23 00:00:00 7.9 12 Sudeste 17 Sudeste 0 -- -- 89
2020-01-22 23:00:00 7.6 8 Sudeste 12 Sudeste 0 -- -- 90
2020-01-22 22:00:00 7.4 3 Sur 6 Sur 0 -- -- 92
2020-01-22 21:00:00 7.9 3 Sudeste 7 Sudeste 0 -- -- 89
2020-01-22 20:00:00 8.5 3 Sudeste 14 Este 0 -- -- 84
2020-01-22 19:00:00 8.4 7 Este 12 Este 0 -- -- 88
2020-01-22 18:00:00 8.5 7 Este 20 Este 0 -- -- 89
2020-01-22 17:00:00 8.5 13 Este 25 Este 0 -- -- 90
2020-01-22 16:00:00 8.2 17 Este 27 Este 0.2 -- -- 93
2020-01-22 15:00:00 8.1 19 Sudeste 31 Sudeste 0 -- -- 94
2020-01-22 14:00:00 7.6 20 Este 28 Sudeste 0.2 -- -- 96
2020-01-22 13:00:00 7.1 14 Este 29 Este 0.8 -- -- 97
2020-01-22 12:00:00 6.4 20 Sudeste 30 Este 1.8 -- -- 99
2020-01-22 11:00:00 6.5 16 Sudeste 24 Este 1.4 -- -- 98
2020-01-22 10:00:00 6.2 6 Sudeste 18 Sudeste 0.4 -- -- 96
2020-01-22 09:00:00 6.2 13 Sudeste 23 Este 0 -- -- 90
2020-01-22 08:00:00 6.1 13 Nordeste 22 Nordeste 0 -- -- 87
2020-01-22 07:00:00 5.8 14 Nordeste 22 Este 0 -- -- 86
2020-01-22 06:00:00 4.9 11 Nordeste 18 Nordeste 0 -- -- 90
2020-01-22 05:00:00 4.3 8 Norte 14 Nordeste 0 -- -- 91
2020-01-22 04:00:00 4.9 6 Norte 10 Nordeste 0 -- -- 88
2020-01-22 03:00:00 5.9 5 Nordeste 19 Este 0 -- -- 84
2020-01-22 02:00:00 6.5 11 Nordeste 20 Nordeste 0 -- -- 82
2020-01-22 01:00:00 7.4 14 Este 25 Este 0 -- -- 78
2020-01-22 00:00:00 7.3 13 Este 27 Nordeste 0 -- -- 80
2020-01-21 23:00:00 7.2 20 Este 30 Nordeste 0 -- -- 80
2020-01-21 22:00:00 7.3 17 Nordeste 26 Nordeste 0 -- -- 80
2020-01-21 21:00:00 7.9 15 Nordeste 26 Nordeste 0 -- -- 75
2020-01-21 20:00:00 7.3 12 Nordeste 21 Nordeste 0 -- -- 77
2020-01-21 19:00:00 7.7 11 Nordeste 30 Este 0 -- -- 75
2020-01-21 18:00:00 8.7 21 Nordeste 37 Nordeste 0 -- -- 70
2020-01-21 17:00:00 9.3 23 Nordeste 43 Nordeste 0 -- -- 69
2020-01-21 16:00:00 10.3 32 Nordeste 46 Nordeste 0 -- -- 65
2020-01-21 15:00:00 10.9 27 Nordeste 46 Nordeste 0 -- -- 63
2020-01-21 14:00:00 10.8 32 Nordeste 48 Nordeste 0 -- -- 67
2020-01-21 13:00:00 8.8 17 Nordeste 47 Este 0 -- -- 67
2020-01-21 12:00:00 9.1 26 Nordeste 50 Nordeste 0 -- -- 63
2020-01-21 11:00:00 7.3 18 Nordeste 48 Este 0 -- -- 69
2020-01-21 10:00:00 5 17 Nordeste 29 Nordeste 0 -- -- 74
2020-01-21 09:00:00 4.5 19 Nordeste 42 Este 0 -- -- 75
2020-01-21 08:00:00 5.7 33 Nordeste 44 Nordeste 0 -- -- 71
2020-01-21 07:00:00 5.7 26 Nordeste 47 Este 0 -- -- 71
2020-01-21 06:00:00 6.2 30 Nordeste 53 Este 0 -- -- 66
2020-01-21 05:00:00 6.4 35 Nordeste 57 Nordeste 0 -- -- 67
2020-01-21 04:00:00 6.3 33 Nordeste 50 Este 0 -- -- 65
2020-01-21 03:00:00 6.2 32 Nordeste 51 Nordeste 0 -- -- 64
2020-01-21 02:00:00 6.3 29 Nordeste 52 Nordeste 0 -- -- 63
2020-01-21 01:00:00 6.2 31 Nordeste 54 Este 0 -- -- 64
2020-01-21 00:00:00 6.5 36 Nordeste 55 Nordeste 0 -- -- 61
2020-01-20 23:00:00 6.4 35 Este 54 Nordeste 0 -- -- 63
2020-01-20 22:00:00 6.5 34 Nordeste 53 Este 0 -- -- 62
2020-01-20 21:00:00 6.7 33 Nordeste 59 Nordeste 0 -- -- 60
2020-01-20 20:00:00 6.7 35 Nordeste 57 Nordeste 0 -- -- 61
2020-01-20 19:00:00 6 28 Nordeste 46 Nordeste 0 -- -- 66
2020-01-20 18:00:00 5.1 35 Nordeste 63 Nordeste 0 -- -- 78
2020-01-20 17:00:00 6.7 39 Nordeste 67 Nordeste 0 -- -- 66
2020-01-20 16:00:00 7.8 36 Nordeste 58 Nordeste 0 -- -- 58
2020-01-20 15:00:00 6.6 35 Nordeste 52 Nordeste 0 -- -- 57
2020-01-20 14:00:00 7.1 35 Nordeste 49 Nordeste 0 -- -- 47
2020-01-20 13:00:00 6.7 19 Nordeste 39 Este 0 -- -- 48
2020-01-20 12:00:00 5.9 21 Nordeste 39 Norte 0 -- -- 52
2020-01-20 11:00:00 4.3 22 Nordeste 34 Nordeste 0 -- -- 57
2020-01-20 10:00:00 4 21 Nordeste 36 Nordeste 0 -- -- 56
2020-01-20 09:00:00 3 19 Nordeste 31 Nordeste 0 -- -- 59
2020-01-20 08:00:00 3 18 Nordeste 30 Nordeste 0 -- -- 59
2020-01-20 07:00:00 3.6 18 Nordeste 39 Nordeste 0 -- -- 57
2020-01-20 06:00:00 4 22 Nordeste 41 Nordeste 0 -- -- 58
2020-01-20 05:00:00 4.2 20 Nordeste 32 Norte 0 -- -- 58
2020-01-20 04:00:00 4 16 Nordeste 27 Nordeste 0 -- -- 58
2020-01-20 03:00:00 3.7 16 Nordeste 27 Nordeste 0 -- -- 57
2020-01-20 02:00:00 3.2 18 Nordeste 28 Nordeste 0 -- -- 60
2020-01-20 01:00:00 3.6 15 Nordeste 32 Nordeste 0 -- -- 58
2020-01-20 00:00:00 4.1 19 Nordeste 39 Nordeste 0 -- -- 56
2020-01-19 23:00:00 4.8 26 Nordeste 44 Nordeste 0 -- -- 53
2020-01-19 22:00:00 5.7 20 Nordeste 39 Nordeste 0 -- -- 53
2020-01-19 21:00:00 6.5 22 Nordeste 42 Nordeste 0 -- -- 54
2020-01-19 20:00:00 7.4 24 Norte 42 Norte 0 -- -- 55
2020-01-19 19:00:00 8.4 21 Norte 40 Norte 0 -- -- 53
2020-01-19 18:00:00 9.9 25 Nordeste 48 Norte 0 -- -- 49
2020-01-19 17:00:00 11.3 23 Nordeste 51 Nordeste 0 -- -- 48
2020-01-19 16:00:00 11.5 31 Nordeste 48 Nordeste 0 -- -- 48
2020-01-19 15:00:00 11.8 28 Norte 50 Norte 0 -- -- 52
2020-01-19 14:00:00 11.4 31 Nordeste 55 Norte 0 -- -- 54
2020-01-19 13:00:00 11.2 36 Nordeste 62 Norte 0 -- -- 62
2020-01-19 12:00:00 10.7 30 Norte 51 Norte 0 -- -- 67
2020-01-19 11:00:00 9.4 17 Norte 35 Norte 0 -- -- 77
2020-01-19 10:00:00 8.2 12 Norte 29 Norte 0 -- -- 84
2020-01-19 09:00:00 6.8 12 Noroeste 22 Norte 0 -- -- 92
2020-01-19 08:00:00 6.5 8 Noroeste 35 Noroeste 0 -- -- 98
2020-01-19 07:00:00 7.4 18 Noroeste 31 Noroeste 0 -- -- 96
2020-01-19 06:00:00 6.1 5 Noroeste 19 Noroeste 0 -- -- 99
2020-01-19 05:00:00 6.3 11 Noroeste 17 Noroeste 0 -- -- 100
2020-01-19 04:00:00 5.7 9 Noroeste 14 Oeste 0 -- -- 98
2020-01-19 03:00:00 7.2 10 Noroeste 26 Noroeste 0 -- -- 92
2020-01-19 02:00:00 8.2 18 Noroeste 34 Noroeste 0 -- -- 88
2020-01-19 01:00:00 8.3 20 Noroeste 31 Noroeste 0 -- -- 89
2020-01-19 00:00:00 9.6 24 Oeste 34 Oeste 0 -- -- 90
2020-01-18 23:00:00 10.1 14 Oeste 33 Oeste 0 -- -- 89
2020-01-18 22:00:00 10.8 19 Oeste 34 Oeste 0 -- -- 91
2020-01-18 21:00:00 11.3 14 Noroeste 39 Oeste 0 -- -- 93
2020-01-18 20:00:00 11.7 22 Oeste 42 Oeste 0 -- -- 93
2020-01-18 19:00:00 12.9 18 Oeste 30 Oeste 0 -- -- 90
2020-01-18 18:00:00 14.5 20 Oeste 33 Oeste 0 -- -- 87
2020-01-18 17:00:00 15.9 24 Oeste 38 Noroeste 0 -- -- 82
2020-01-18 16:00:00 15.1 14 Oeste 25 Sudoeste 0 -- -- 95
2020-01-18 15:00:00 14.7 12 Sudoeste 18 Sudoeste 0 -- -- 98
2020-01-18 14:00:00 13.8 9 Sudoeste 18 Sudoeste 0 -- -- 98
2020-01-18 13:00:00 11.6 8 Sur 19 Sur 0.2 -- -- 100
2020-01-18 12:00:00 10.5 14 Sur 27 Sur 0.4 -- -- 100
2020-01-18 11:00:00 9.4 21 Sudeste 28 Sur 0.8 -- -- 100
2020-01-18 10:00:00 9.1 18 Sur 29 Sur 1.8 -- -- 100
2020-01-18 09:00:00 9.2 19 Sudeste 32 Sudeste 3.2 -- -- 100
2020-01-18 08:00:00 9.2 12 Sudeste 31 Sur 1.4 -- -- 100
2020-01-18 07:00:00 9.7 18 Sur 31 Sur 0.2 -- -- 97
2020-01-18 06:00:00 9.6 13 Sur 26 Sur 0.2 -- -- 96
2020-01-18 05:00:00 9.2 11 Sur 17 Sur 0 -- -- 97
2020-01-18 04:00:00 9.3 14 Sudeste 19 Sudeste 0 -- -- 97
2020-01-18 03:00:00 9.3 10 Sur 13 Sur 0 -- -- 97
2020-01-18 02:00:00 8.9 7 Sudeste 12 Sudeste 0 -- -- 99
2020-01-18 01:00:00 8.9 8 Sudeste 10 Sudeste 0 -- -- 99
2020-01-18 00:00:00 8.8 2 Este 5 Este 0 -- -- 100
2020-01-17 23:00:00 7.9 2 Sudeste 5 Este 0 -- -- 100
2020-01-17 22:00:00 8 3 Sudeste 5 Sudeste 0 -- -- 100
2020-01-17 21:00:00 8.8 0 Calma 5 Sudeste 0 -- -- 97
2020-01-17 20:00:00 9.5 3 Sudeste 8 Sudoeste 0 -- -- 95
2020-01-17 19:00:00 10.5 7 Sudoeste 13 Sudoeste 0 -- -- 90
2020-01-17 18:00:00 11.4 5 Sudoeste 13 Sudoeste 0 -- -- 88
2020-01-17 17:00:00 13.3 8 Sudoeste 19 Sudoeste 0 -- -- 78
2020-01-17 16:00:00 13.2 4 Oeste 21 Oeste 0 -- -- 78
2020-01-17 15:00:00 13.2 7 Oeste 17 Sudoeste 0 -- -- 79
2020-01-17 14:00:00 12.1 9 Sudoeste 16 Oeste 0 -- -- 88
2020-01-17 13:00:00 10.3 9 Oeste 19 Oeste 0 -- -- 100
2020-01-17 12:00:00 9.8 11 Sudoeste 15 Oeste 0 -- -- 100
2020-01-17 11:00:00 9.3 4 Sudoeste 12 Sudoeste 0 -- -- 100
2020-01-17 10:00:00 8.6 6 Sudoeste 16 Sudoeste 0 -- -- 100
2020-01-17 09:00:00 8.7 8 Sudoeste 16 Oeste 0 -- -- 100
2020-01-17 08:00:00 9.2 6 Oeste 14 Oeste 0 -- -- 100
2020-01-17 07:00:00 9.1 12 Oeste 17 Oeste 0 -- -- 100
2020-01-17 06:00:00 9.3 8 Oeste 18 Oeste 0 -- -- 100
2020-01-17 05:00:00 9.6 5 Oeste 12 Oeste 0 -- -- 100
2020-01-17 04:00:00 9.7 5 Oeste 8 Sudoeste 0 -- -- 100
2020-01-17 03:00:00 9.6 0 Calma 6 Oeste 0 -- -- 100
2020-01-17 02:00:00 9.7 4 Oeste 11 Sudoeste 0 -- -- 100
2020-01-17 01:00:00 9.5 3 Sur 17 Sudoeste 0 -- -- 100
2020-01-17 00:00:00 10.3 11 Sudoeste 27 Sudoeste 0 -- -- 98
2020-01-16 23:00:00 10.4 11 Sudoeste 32 Sur 0.2 -- -- 93
2020-01-16 22:00:00 11.4 19 Sudoeste 37 Sur 0 -- -- 80
2020-01-16 21:00:00 12.6 22 Sudoeste 40 Sudoeste 0 -- -- 65
2020-01-16 20:00:00 12.3 17 Sur 36 Sur 0 -- -- 65
2020-01-16 19:00:00 12.9 15 Sur 31 Sur 0 -- -- 65
2020-01-16 18:00:00 13.7 14 Sudoeste 36 Sudoeste 0 -- -- 59
2020-01-16 17:00:00 15.3 17 Sudoeste 38 Sudoeste 0 -- -- 51
2020-01-16 16:00:00 15.9 24 Sudoeste 37 Sudoeste 0 -- -- 53
2020-01-16 15:00:00 14.9 18 Sudoeste 32 Sudoeste 0 -- -- 69
2020-01-16 14:00:00 14 17 Sur 30 Sur 0 -- -- 77
2020-01-16 13:00:00 13.5 14 Sur 25 Sur 0 -- -- 75
2020-01-16 12:00:00 12.2 18 Sudeste 27 Sudeste 0 -- -- 84
2020-01-16 11:00:00 10.7 16 Sudeste 21 Sudeste 0 -- -- 91
2020-01-16 10:00:00 8.8 13 Sur 20 Sur 0 -- -- 98
2020-01-16 09:00:00 8.2 13 Sur 17 Sur 0 -- -- 100
2020-01-16 08:00:00 8.9 12 Sudeste 17 Sudeste 0 -- -- 98
2020-01-16 07:00:00 9.6 12 Sur 20 Sudeste 0 -- -- 98
2020-01-16 06:00:00 10.4 12 Sur 21 Sur 0 -- -- 96
2020-01-16 05:00:00 10.5 15 Sur 20 Sur 0 -- -- 98
2020-01-16 04:00:00 9.8 10 Sur 13 Sudeste 0 -- -- 100
2020-01-16 03:00:00 10.6 10 Sudeste 15 Sudeste 0 -- -- 98
2020-01-16 02:00:00 10.7 9 Sudeste 14 Sudeste 0 -- -- 98
2020-01-16 01:00:00 10.8 9 Sudeste 14 Sudeste 0 -- -- 98
2020-01-16 00:00:00 10.8 10 Sudeste 16 Sur 0 -- -- 98
2020-01-15 23:00:00 10.8 12 Sudeste 20 Sur 0.2 -- -- 98
2020-01-15 22:00:00 11 11 Sur 21 Sur 0 -- -- 96
2020-01-15 21:00:00 11.7 14 Sur 26 Sur 0 -- -- 93
2020-01-15 20:00:00 12.1 17 Sur 25 Sur 0 -- -- 92
2020-01-15 19:00:00 13.6 14 Sur 23 Sudoeste 0 -- -- 87
2020-01-15 18:00:00 14 14 Sur 26 Sur 0 -- -- 86
2020-01-15 17:00:00 15.1 14 Sudoeste 30 Sudoeste 0 -- -- 82
2020-01-15 16:00:00 14.7 15 Sudoeste 30 Sudoeste 0 -- -- 83
2020-01-15 15:00:00 13.8 11 Sur 19 Sur 0 -- -- 87
2020-01-15 14:00:00 11.3 11 Sur 17 Sur 0.2 -- -- 93
2020-01-15 13:00:00 10.9 12 Sudeste 21 Sudeste 0 -- -- 91
2020-01-15 12:00:00 9.4 14 Sudeste 22 Sudeste 0 -- -- 91
2020-01-15 11:00:00 8.8 13 Sudeste 21 Sudeste 0 -- -- 91
2020-01-15 10:00:00 9.2 16 Sur 23 Sur 0 -- -- 90
2020-01-15 09:00:00 8.7 15 Sudeste 22 Sudeste 0 -- -- 89
2020-01-15 08:00:00 8.2 14 Sudeste 18 Sudeste 0 -- -- 91
2020-01-15 07:00:00 8 14 Sur 32 Sudeste 0 -- -- 91
2020-01-15 06:00:00 8.9 23 Sur 31 Sudeste 0 -- -- 85
2020-01-15 05:00:00 7.5 15 Sur 25 Sur 0 -- -- 92
2020-01-15 04:00:00 7.1 17 Sudeste 29 Sudeste 0 -- -- 92
2020-01-15 03:00:00 7.2 16 Sur 23 Sudeste 0 -- -- 92
2020-01-15 02:00:00 6.4 16 Sudeste 21 Sudeste 0 -- -- 96
2020-01-15 01:00:00 6.5 13 Sur 20 Sudeste 0 -- -- 95
2020-01-15 00:00:00 7.3 12 Sudeste 18 Sudeste 0 -- -- 92
2020-01-14 23:00:00 9.1 14 Sur 24 Sudeste 0 -- -- 86
2020-01-14 22:00:00 9.6 15 Sur 30 Sur 0 -- -- 85
2020-01-14 21:00:00 9.7 14 Sur 25 Sur 0 -- -- 86
2020-01-14 20:00:00 8.6 14 Sur 19 Sudeste 0 -- -- 95
2020-01-14 19:00:00 8.4 11 Sudeste 17 Sur 0 -- -- 97
2020-01-14 18:00:00 8.6 13 Sur 18 Sur 0.4 -- -- 98
2020-01-14 17:00:00 9.2 12 Sur 22 Sur 0 -- -- 92
2020-01-14 16:00:00 10 14 Sur 19 Sur 0 -- -- 79
2020-01-14 15:00:00 10.1 13 Sur 22 Sur 0 -- -- 77
2020-01-14 14:00:00 9.8 15 Sur 25 Sur 0 -- -- 76
2020-01-14 13:00:00 9 14 Sur 24 Sur 0 -- -- 78
2020-01-14 12:00:00 7.9 15 Sudeste 23 Sudeste 0 -- -- 81
2020-01-14 11:00:00 7.3 12 Sudeste 20 Sur 0 -- -- 82
2020-01-14 10:00:00 5.1 8 Sudeste 19 Sudeste 0 -- -- 92
2020-01-14 09:00:00 3.5 13 Sudeste 19 Sudeste 0 -- -- 96
2020-01-14 08:00:00 3.9 12 Sudeste 18 Sudeste 0 -- -- 96
2020-01-14 07:00:00 3 4 Sudeste 12 Sudeste 0 -- -- 97
2020-01-14 06:00:00 3 8 Sur 13 Sudeste 0 -- -- 96
2020-01-14 05:00:00 2.9 7 Sudeste 12 Sudeste 0 -- -- 100
2020-01-14 04:00:00 1.2 5 Sudeste 7 Sudeste 0 -- -- 100
2020-01-14 03:00:00 0.8 3 Sur 7 Sudeste 0 -- -- 100
2020-01-14 02:00:00 1 3 Sudeste 8 Sudeste 0 -- -- 100
2020-01-14 01:00:00 1 0 Calma 2 Noroeste 0 -- -- 98
2020-01-14 00:00:00 1.5 0 Calma 4 Sur 0 -- -- 99
2020-01-13 23:00:00 1.7 0 Calma 5 Sur 0 -- -- 100
2020-01-13 22:00:00 1.8 2 Sudeste 4 Sudeste 0 -- -- 92
2020-01-13 21:00:00 3.3 3 Sudeste 11 Sudoeste 0 -- -- 88
2020-01-13 20:00:00 6.2 10 Sudoeste 19 Sudoeste 0 -- -- 77
2020-01-13 19:00:00 6.8 5 Sudoeste 14 Sudoeste 0 -- -- 73
2020-01-13 18:00:00 8.9 9 Sudoeste 15 Sudoeste 0 -- -- 66
2020-01-13 17:00:00 10.8 9 Sur 17 Sudoeste 0 -- -- 64
2020-01-13 16:00:00 10.6 9 Oeste 19 Sudoeste 0 -- -- 70
2020-01-13 15:00:00 10.8 13 Sudoeste 20 Sudoeste 0 -- -- 66
2020-01-13 14:00:00 10.5 12 Sudoeste 23 Sudoeste 0 -- -- 64
2020-01-13 13:00:00 9.6 6 Sudeste 14 Sudeste 0 -- -- 71
2020-01-13 12:00:00 7.7 10 Sudeste 17 Sudeste 0 -- -- 79
2020-01-13 11:00:00 6.8 11 Sudeste 16 Sudeste 0 -- -- 84
2020-01-13 10:00:00 4.1 9 Sudeste 14 Sudeste 0 -- -- 91
2020-01-13 09:00:00 1.7 9 Sudeste 12 Sudeste 0 -- -- 99
2020-01-13 08:00:00 -0.3 5 Sudeste 7 Sudeste 0 -- -- 100
2020-01-13 07:00:00 0.4 2 Sur 4 Sudeste 0 -- -- 100
2020-01-13 06:00:00 0.3 3 Sur 8 Sudeste 0 -- -- 100
2020-01-13 05:00:00 0.5 3 Sur 6 Sur 0 -- -- 99
2020-01-13 04:00:00 0.2 2 Sur 4 Sur 0 -- -- 98
2020-01-13 03:00:00 1.2 0 Calma -- -- 0 -- -- 98
2020-01-13 02:00:00 1.5 0 Calma -- -- 0 -- -- 90
2020-01-13 01:00:00 2.1 0 Calma -- -- 0 -- -- 92
2020-01-13 00:00:00 2 0 Calma -- -- 0 -- -- 94
2020-01-12 23:00:00 2.4 0 Calma 0 Calma 0 -- -- 90
2020-01-12 22:00:00 3.1 3 Oeste 5 Oeste 0 -- -- 87
2020-01-12 21:00:00 3.9 0 Calma 2 Sudoeste 0 -- -- 89
2020-01-12 20:00:00 5.2 0 Calma 4 Noroeste 0 -- -- 84
2020-01-12 19:00:00 7.2 4 Noroeste 7 Oeste 0 -- -- 76
2020-01-12 18:00:00 12.3 0 Calma 4 Norte 0 -- -- 54
2020-01-12 17:00:00 13.1 2 Norte 10 Norte 0 -- -- 44
2020-01-12 16:00:00 13.5 3 Sudeste 10 Norte 0 -- -- 51
2020-01-12 15:00:00 13 2 Sudeste 12 Norte 0 -- -- 50
2020-01-12 14:00:00 12.2 4 Norte 13 Noroeste 0 -- -- 59
2020-01-12 13:00:00 12 4 Norte 7 Noroeste 0 -- -- 63
2020-01-12 12:00:00 10.6 3 Sudeste 8 Sudeste 0 -- -- 62
2020-01-12 11:00:00 8.3 5 Sudeste 8 Sudeste 0 -- -- 74
2020-01-12 10:00:00 3.6 0 Calma 2 Sur 0 -- -- 87
2020-01-12 09:00:00 -0.1 0 Calma 3 Oeste 0 -- -- 98
2020-01-12 08:00:00 -0.5 0 Calma 3 Oeste 0 -- -- 97
2020-01-12 07:00:00 0.7 0 Calma 5 Oeste 0 -- -- 94
2020-01-12 06:00:00 1 0 Calma 4 Noroeste 0 -- -- 95
2020-01-12 05:00:00 1.7 0 Calma 5 Noroeste 0 -- -- 90
2020-01-12 04:00:00 2.6 3 Norte 6 Oeste 0 -- -- 88
2020-01-12 03:00:00 1.9 5 Noroeste 8 Oeste 0 -- -- 91
2020-01-12 02:00:00 2.8 6 Noroeste 8 Noroeste 0 -- -- 88
2020-01-12 01:00:00 2.6 2 Noroeste 6 Oeste 0 -- -- 90
2020-01-12 00:00:00 2.5 3 Oeste 6 Oeste 0 -- -- 90
2020-01-11 23:00:00 3.7 0 Calma 4 Norte 0 -- -- 85
2020-01-11 22:00:00 5.5 2 Oeste 8 Norte 0 -- -- 79
2020-01-11 21:00:00 5.9 4 Norte 8 Nordeste 0 -- -- 77
2020-01-11 20:00:00 6.6 3 Noroeste 10 Norte 0 -- -- 76
2020-01-11 19:00:00 8.1 7 Nordeste 13 Nordeste 0 -- -- 72
2020-01-11 18:00:00 10.7 9 Nordeste 14 Nordeste 0 -- -- 63
2020-01-11 17:00:00 12.9 5 Norte 15 Este 0 -- -- 53
2020-01-11 16:00:00 13.2 9 Este 15 Este 0 -- -- 50
2020-01-11 15:00:00 12.6 7 Norte 11 Nordeste 0 -- -- 54
2020-01-11 14:00:00 12.1 4 Norte 13 Nordeste 0 -- -- 57
2020-01-11 13:00:00 11.9 9 Este 17 Este 0 -- -- 51
2020-01-11 12:00:00 9.7 6 Norte 9 Norte 0 -- -- 66
2020-01-11 11:00:00 7.6 0 Calma 6 Norte 0 -- -- 71
2020-01-11 10:00:00 5 0 Calma 6 Oeste 0 -- -- 80
2020-01-11 09:00:00 3.3 2 Noroeste 10 Norte 0 -- -- 81
2020-01-11 08:00:00 3.3 3 Norte 15 Norte 0 -- -- 82
2020-01-11 07:00:00 3.6 7 Norte 12 Norte 0 -- -- 82
2020-01-11 06:00:00 3.4 2 Sudoeste 9 Norte 0 -- -- 82
2020-01-11 05:00:00 4.1 4 Norte 12 Norte 0 -- -- 80
2020-01-11 04:00:00 4.2 3 Noroeste 12 Norte 0 -- -- 80
2020-01-11 03:00:00 4.2 6 Norte 11 Norte 0 -- -- 82
2020-01-11 02:00:00 5 8 Norte 14 Nordeste 0 -- -- 80
2020-01-11 01:00:00 5.4 2 Noroeste 5 Norte 0 -- -- 76
2020-01-11 00:00:00 5.6 3 Oeste 14 Norte 0 -- -- 77
2020-01-10 23:00:00 6.3 7 Nordeste 19 Nordeste 0 -- -- 75
2020-01-10 22:00:00 7.6 15 Nordeste 25 Nordeste 0 -- -- 70
2020-01-10 21:00:00 7.8 14 Nordeste 19 Nordeste 0 -- -- 70
2020-01-10 20:00:00 7.1 7 Norte 13 Norte 0 -- -- 73
2020-01-10 19:00:00 8.3 5 Norte 17 Nordeste 0 -- -- 67
2020-01-10 18:00:00 10.5 13 Nordeste 22 Nordeste 0 -- -- 59
2020-01-10 17:00:00 12 11 Nordeste 24 Norte 0 -- -- 58
2020-01-10 16:00:00 12.4 13 Norte 23 Norte 0 -- -- 57
2020-01-10 15:00:00 11.8 12 Nordeste 21 Nordeste 0 -- -- 65
2020-01-10 14:00:00 11.1 14 Nordeste 23 Este 0 -- -- 75
2020-01-10 13:00:00 10.3 15 Nordeste 27 Nordeste 0 -- -- 75
2020-01-10 12:00:00 8.8 15 Nordeste 26 Nordeste 0 -- -- 75
2020-01-10 11:00:00 7.4 13 Norte 32 Norte 0 -- -- 74
2020-01-10 10:00:00 5.9 16 Norte 27 Norte 0 -- -- 79
2020-01-10 09:00:00 4.6 16 Norte 29 Norte 0 -- -- 82
2020-01-10 08:00:00 4.9 15 Norte 31 Norte 0 -- -- 80
2020-01-10 07:00:00 5.3 18 Norte 26 Noroeste 0 -- -- 78
2020-01-10 06:00:00 5.5 16 Noroeste 26 Noroeste 0 -- -- 82
2020-01-10 05:00:00 5.8 15 Noroeste 28 Noroeste 0 -- -- 86
2020-01-10 04:00:00 5.7 7 Noroeste 22 Noroeste 0 -- -- 89
2020-01-10 03:00:00 6.6 2 Norte 20 Noroeste 0 -- -- 87
2020-01-10 02:00:00 7.8 11 Noroeste 24 Noroeste 0 -- -- 84
2020-01-10 01:00:00 8.3 16 Noroeste 27 Norte 0 -- -- 88
2020-01-10 00:00:00 8.1 13 Noroeste 22 Noroeste 0 -- -- 93
2020-01-09 23:00:00 8.1 12 Noroeste 14 Noroeste 0 -- -- 100
2020-01-09 22:00:00 8.6 11 Noroeste 14 Noroeste 0 -- -- 97
2020-01-09 21:00:00 9.7 7 Noroeste 15 Oeste 0 -- -- 92
2020-01-09 20:00:00 9 10 Noroeste 14 Oeste 0 -- -- 90
2020-01-09 19:00:00 9.6 2 Sudoeste 16 Oeste 0 -- -- 86
2020-01-09 18:00:00 11.1 2 Oeste 12 Oeste 0 -- -- 80
2020-01-09 17:00:00 12.9 9 Oeste 14 Oeste 0 -- -- 77
2020-01-09 16:00:00 13.6 2 Sudoeste 15 Sudoeste 0 -- -- 74
2020-01-09 15:00:00 12.6 12 Oeste 16 Oeste 0 -- -- 80
2020-01-09 14:00:00 12.4 3 Oeste 11 Oeste 0 -- -- 76
2020-01-09 13:00:00 10.8 5 Oeste 9 Nordeste 0 -- -- 82
2020-01-09 12:00:00 8.9 6 Norte 10 Norte 0 -- -- 89
2020-01-09 11:00:00 6.8 3 Nordeste 11 Norte 0 -- -- 93
2020-01-09 10:00:00 4.9 4 Norte 8 Norte 0 -- -- 100
2020-01-09 09:00:00 2.2 0 Calma 12 Oeste 0.2 -- -- 100
2020-01-09 08:00:00 2.8 3 Norte 5 Noroeste 0 -- -- 100
2020-01-09 07:00:00 1.9 3 Norte 5 Norte 0 -- -- 100
2020-01-09 06:00:00 2.8 0 Calma 6 Oeste 0 -- -- 100
2020-01-09 05:00:00 3.1 4 Noroeste 7 Noroeste 0 -- -- 100
2020-01-09 04:00:00 3.7 3 Sudeste 9 Norte 0 -- -- 94
2020-01-09 03:00:00 5.1 3 Norte 7 Norte 0 -- -- 99
2020-01-09 02:00:00 4.5 3 Norte 10 Norte 0 -- -- 99
2020-01-09 01:00:00 6 3 Norte 9 Norte 0 -- -- 98
2020-01-09 00:00:00 6.1 3 Norte 8 Norte 0 -- -- 99
2020-01-08 23:00:00 6.2 5 Norte 8 Norte 0 -- -- 100
2020-01-08 22:00:00 5 4 Noroeste 4 Noroeste 0 -- -- 100
2020-01-08 21:00:00 5.2 4 Noroeste 5 Oeste 0 -- -- 98
2020-01-08 20:00:00 6.5 0 Calma 6 Noroeste 0 -- -- 96
2020-01-08 19:00:00 8.9 0 Calma 6 Norte 0 -- -- 82
2020-01-08 18:00:00 12.9 4 Noroeste 8 Noroeste 0 -- -- 68
2020-01-08 17:00:00 14.2 4 Norte 9 Norte 0 -- -- 65
2020-01-08 16:00:00 14.3 7 Norte 10 Norte 0 -- -- 60
2020-01-08 15:00:00 14.6 5 Noroeste 8 Oeste 0 -- -- 62
2020-01-08 14:00:00 13.2 2 Noroeste 6 Oeste 0 -- -- 69
2020-01-08 13:00:00 11.7 3 Noroeste 5 Oeste 0 -- -- 79
2020-01-08 12:00:00 9.2 2 Norte 6 Norte 0 -- -- 82
2020-01-08 11:00:00 6.6 4 Norte 8 Nordeste 0 -- -- 92
2020-01-08 10:00:00 3.5 5 Oeste 6 Oeste 0 -- -- 100
2020-01-08 09:00:00 1.8 0 Calma 2 Noroeste 0 -- -- 100
2020-01-08 08:00:00 0.8 0 Calma 4 Sur 0 -- -- 100
2020-01-08 07:00:00 1.7 0 Calma 7 Noroeste 0 -- -- 94
2020-01-08 06:00:00 3.8 0 Calma 5 Norte 0 -- -- 96
2020-01-08 05:00:00 3.4 0 Calma 4 Norte 0 -- -- 97
2020-01-08 04:00:00 4.6 2 Norte 8 Norte 0 -- -- 100
2020-01-08 03:00:00 4.4 3 Norte 6 Norte 0 -- -- 100
2020-01-08 02:00:00 4.1 2 Noroeste 5 Noroeste 0 -- -- 96
2020-01-08 01:00:00 5.4 2 Noroeste 5 Norte 0 -- -- 99
2020-01-08 00:00:00 7.2 2 Norte 6 Norte 0 -- -- 98
2020-01-07 23:00:00 4.8 4 Noroeste 6 Noroeste 0 -- -- 95
2020-01-07 22:00:00 6.5 4 Norte 6 Norte 0 -- -- 94
2020-01-07 21:00:00 7.5 7 Norte 9 Norte 0 -- -- 86
2020-01-07 20:00:00 8.4 4 Norte 12 Norte 0 -- -- 81
2020-01-07 19:00:00 10.8 5 Noroeste 10 Noroeste 0 -- -- 72
2020-01-07 18:00:00 13.2 6 Norte 9 Nordeste 0 -- -- 64
2020-01-07 17:00:00 15.5 5 Norte 9 Norte 0 -- -- 53
2020-01-07 16:00:00 15.6 5 Norte 9 Norte 0 -- -- 52
2020-01-07 15:00:00 15.3 3 Nordeste 6 Norte 0 -- -- 54
2020-01-07 14:00:00 14.3 3 Este 9 Norte 0 -- -- 59
2020-01-07 13:00:00 12.9 4 Norte 6 Norte 0 -- -- 64
2020-01-07 12:00:00 10.7 3 Oeste 7 Norte 0 -- -- 82
2020-01-07 11:00:00 8.2 3 Norte 6 Norte 0 -- -- 90
2020-01-07 10:00:00 4.6 2 Noroeste 8 Norte 0 -- -- 100
2020-01-07 09:00:00 1.2 0 Calma 6 Oeste 0 -- -- 100
2020-01-07 08:00:00 2.3 6 Oeste 8 Oeste 0 -- -- 100
2020-01-07 07:00:00 3.2 3 Noroeste 5 Noroeste 0 -- -- 100
2020-01-07 06:00:00 3.3 4 Noroeste 7 Noroeste 0 -- -- 97
2020-01-07 05:00:00 3.8 3 Noroeste 7 Noroeste 0 -- -- 100
2020-01-07 04:00:00 3.1 3 Noroeste 6 Noroeste 0 -- -- 100
2020-01-07 03:00:00 3.6 5 Oeste 8 Norte 0 -- -- 100
2020-01-07 02:00:00 3 4 Noroeste 6 Oeste 0 -- -- 100
2020-01-07 01:00:00 3.7 3 Norte 4 Norte 0 -- -- 100
2020-01-07 00:00:00 5.2 3 Noroeste 9 Norte 0 -- -- 97
2020-01-06 23:00:00 4.5 3 Norte 5 Norte 0 -- -- 99
2020-01-06 22:00:00 6.7 0 Calma 5 Noroeste 0 -- -- 90
2020-01-06 21:00:00 7.5 3 Noroeste 6 Norte 0 -- -- 91
2020-01-06 20:00:00 8.1 5 Norte 12 Norte 0 -- -- 87
2020-01-06 19:00:00 8.6 2 Noroeste 12 Norte 0 -- -- 82
2020-01-06 18:00:00 12.6 5 Norte 10 Norte 0 -- -- 69
2020-01-06 17:00:00 13.9 5 Noroeste 13 Norte 0 -- -- 63
2020-01-06 16:00:00 14.7 6 Noroeste 10 Noroeste 0 -- -- 62
2020-01-06 15:00:00 14.7 3 Sur 9 Norte 0 -- -- 64
2020-01-06 14:00:00 13.8 2 Sur 6 Nordeste 0 -- -- 67
2020-01-06 13:00:00 12.3 0 Calma 5 Sudoeste 0 -- -- 72
2020-01-06 12:00:00 9.7 3 Norte 7 Norte 0 -- -- 84
2020-01-06 11:00:00 8 0 Calma 8 Norte 0 -- -- 85
2020-01-06 10:00:00 4.5 5 Noroeste 7 Noroeste 0 -- -- 100